createdAt,value
2018-11-27T00:00:42.054Z,4.80
2018-11-27T00:03:10.726Z,4.80
2018-11-27T00:05:39.377Z,4.90
2018-11-27T00:08:08.303Z,4.90
2018-11-27T00:10:38.696Z,4.90
2018-11-27T00:13:07.406Z,5.00
2018-11-27T00:15:36.120Z,4.90
2018-11-27T00:18:04.846Z,5.00
2018-11-27T00:20:33.499Z,4.90
2018-11-27T00:23:02.150Z,4.90
2018-11-27T00:25:30.751Z,4.80
2018-11-27T00:27:59.410Z,4.80
2018-11-27T00:30:28.058Z,4.80
2018-11-27T00:32:56.693Z,4.80
2018-11-27T00:35:25.347Z,4.80
2018-11-27T00:37:53.976Z,4.80
2018-11-27T00:40:23.870Z,4.80
2018-11-27T00:42:52.494Z,4.80
2018-11-27T00:45:21.768Z,4.70
2018-11-27T00:47:51.358Z,4.70
2018-11-27T00:50:21.342Z,4.70
2018-11-27T00:52:49.956Z,4.70
2018-11-27T00:55:19.488Z,4.60
2018-11-27T00:57:50.371Z,4.60
2018-11-27T01:00:22.170Z,4.60
2018-11-27T01:02:50.932Z,4.50
2018-11-27T01:05:21.709Z,4.50
2018-11-27T01:07:50.370Z,4.50
2018-11-27T01:10:21.951Z,4.40
2018-11-27T01:12:50.619Z,4.40
2018-11-27T01:15:19.332Z,4.40
2018-11-27T01:17:52.061Z,4.40
2018-11-27T01:20:21.590Z,4.50
2018-11-27T01:22:50.242Z,4.50
2018-11-27T01:25:18.942Z,4.50
2018-11-27T01:27:47.626Z,4.50
2018-11-27T01:30:18.277Z,4.50
2018-11-27T01:32:47.060Z,4.50
2018-11-27T01:35:16.817Z,4.50
2018-11-27T01:37:45.585Z,4.50
2018-11-27T01:40:21.232Z,4.50
2018-11-27T01:42:51.943Z,4.50
2018-11-27T01:45:21.259Z,4.50
2018-11-27T01:47:50.066Z,4.40
2018-11-27T01:50:19.278Z,4.40
2018-11-27T01:52:48.070Z,4.50
2018-11-27T01:55:18.529Z,4.50
2018-11-27T01:57:47.229Z,4.60
2018-11-27T02:00:29.503Z,4.60
2018-11-27T02:02:59.261Z,4.70
2018-11-27T02:05:28.507Z,4.80
2018-11-27T02:07:57.137Z,4.90
2018-11-27T02:10:25.891Z,4.80
2018-11-27T02:13:00.832Z,4.90
2018-11-27T02:15:28.013Z,4.80
2018-11-27T02:17:56.782Z,4.80
2018-11-27T02:20:25.486Z,4.80
2018-11-27T02:22:54.157Z,4.80
2018-11-27T02:25:23.993Z,4.80
2018-11-27T02:27:52.714Z,4.80
2018-11-27T02:30:22.433Z,4.70
2018-11-27T02:32:51.222Z,4.70
2018-11-27T02:35:20.843Z,4.70
2018-11-27T02:37:50.741Z,4.70
2018-11-27T02:40:19.444Z,4.70
2018-11-27T02:42:48.146Z,4.80
2018-11-27T02:45:18.295Z,4.80
2018-11-27T02:47:47.601Z,4.80
2018-11-27T02:50:17.616Z,4.80
2018-11-27T02:52:46.302Z,4.80
2018-11-27T02:55:22.830Z,4.80
2018-11-27T02:57:51.465Z,4.80
2018-11-27T03:00:22.335Z,4.80
2018-11-27T03:02:50.951Z,4.70
2018-11-27T03:05:28.378Z,4.70
2018-11-27T03:07:57.073Z,4.60
2018-11-27T03:10:25.691Z,4.60
2018-11-27T03:12:54.337Z,4.60
2018-11-27T03:15:22.950Z,4.60
2018-11-27T03:17:51.620Z,4.60
2018-11-27T03:20:20.293Z,4.60
2018-11-27T03:22:48.930Z,4.50
2018-11-27T03:25:20.432Z,4.50
2018-11-27T03:27:51.586Z,4.50
2018-11-27T03:30:22.173Z,4.50
2018-11-27T03:32:50.835Z,4.50
2018-11-27T03:35:20.528Z,4.50
2018-11-27T03:37:49.593Z,4.40
2018-11-27T03:40:20.270Z,4.40
2018-11-27T03:42:49.117Z,4.30
2018-11-27T03:45:18.350Z,4.30
2018-11-27T03:47:47.016Z,4.30
2018-11-27T03:50:17.593Z,4.30
2018-11-27T03:52:46.241Z,4.30
2018-11-27T03:55:14.905Z,4.30
2018-11-27T03:57:43.540Z,4.20
2018-11-27T04:00:27.257Z,4.20
2018-11-27T04:03:12.871Z,4.20
2018-11-27T04:05:42.448Z,4.20
2018-11-27T04:08:11.201Z,4.10
2018-11-27T04:10:41.067Z,4.10
2018-11-27T04:13:09.685Z,4.10
2018-11-27T04:15:38.330Z,4.10
2018-11-27T04:18:06.985Z,4.10
2018-11-27T04:20:35.594Z,4.10
2018-11-27T04:23:04.194Z,4.00
2018-11-27T04:25:32.795Z,4.00
2018-11-27T04:28:01.389Z,4.00
2018-11-27T04:30:30.023Z,3.90
2018-11-27T04:32:58.673Z,3.90
2018-11-27T04:35:27.272Z,3.80
2018-11-27T04:37:55.894Z,3.80
2018-11-27T04:40:24.498Z,3.70
2018-11-27T04:42:53.137Z,3.70
2018-11-27T04:45:23.805Z,3.70
2018-11-27T04:47:52.446Z,3.60
2018-11-27T04:50:21.258Z,3.60
2018-11-27T04:52:49.861Z,3.50
2018-11-27T04:55:19.967Z,3.40
2018-11-27T04:57:49.250Z,3.30
2018-11-27T05:00:20.066Z,3.20
2018-11-27T05:02:48.800Z,3.10
2018-11-27T05:05:17.703Z,3.00
2018-11-27T05:07:46.358Z,2.90
2018-11-27T05:10:17.403Z,2.90
2018-11-27T05:12:46.026Z,2.80
2018-11-27T05:15:16.604Z,2.80
2018-11-27T05:17:48.176Z,2.70
2018-11-27T05:20:15.009Z,2.70
2018-11-27T05:22:43.634Z,2.70
2018-11-27T05:25:16.185Z,2.70
2018-11-27T05:27:48.561Z,2.70
2018-11-27T05:30:25.056Z,2.70
2018-11-27T05:32:53.671Z,2.70
2018-11-27T05:35:23.625Z,2.60
2018-11-27T05:37:52.292Z,2.60
2018-11-27T05:40:23.063Z,2.50
2018-11-27T05:42:53.171Z,2.50
2018-11-27T05:45:25.303Z,2.40
2018-11-27T05:47:53.926Z,2.40
2018-11-27T05:50:22.569Z,2.40
2018-11-27T05:52:51.185Z,2.30
2018-11-27T05:55:19.814Z,2.30
2018-11-27T05:57:50.060Z,2.20
2018-11-27T06:00:20.010Z,2.20
2018-11-27T06:02:49.789Z,2.10
2018-11-27T06:05:19.737Z,2.00
2018-11-27T06:07:48.440Z,2.00
2018-11-27T06:10:18.150Z,1.90
2018-11-27T06:12:46.827Z,1.90
2018-11-27T06:15:24.250Z,1.90
2018-11-27T06:17:56.971Z,1.80
2018-11-27T06:20:25.669Z,1.80
2018-11-27T06:22:54.843Z,1.80
2018-11-27T06:25:27.654Z,1.90
2018-11-27T06:27:58.573Z,2.00
2018-11-27T06:30:28.304Z,2.10
2018-11-27T06:32:57.050Z,2.20
2018-11-27T06:35:26.887Z,2.20
2018-11-27T06:40:38.722Z,2.40
2018-11-27T06:43:08.813Z,2.40
2018-11-27T06:45:37.695Z,2.50
2018-11-27T06:48:06.505Z,2.50
2018-11-27T06:50:35.131Z,2.50
2018-11-27T06:53:03.792Z,2.60
2018-11-27T06:55:32.418Z,2.60
2018-11-27T06:58:01.066Z,2.60
2018-11-27T07:00:30.114Z,2.60
2018-11-27T07:02:59.398Z,2.60
2018-11-27T07:05:28.050Z,2.60
2018-11-27T07:07:56.654Z,2.60
2018-11-27T07:10:27.787Z,2.70
2018-11-27T07:13:23.504Z,2.80
2018-11-27T07:15:52.425Z,2.80
2018-11-27T07:18:21.059Z,2.80
2018-11-27T07:20:49.717Z,2.90
2018-11-27T07:23:18.363Z,2.90
2018-11-27T07:25:47.022Z,2.90
2018-11-27T07:28:15.637Z,2.90
2018-11-27T07:30:44.306Z,2.90
2018-11-27T07:33:12.958Z,2.90
2018-11-27T07:35:41.586Z,2.90
2018-11-27T07:38:10.234Z,2.90
2018-11-27T07:40:38.849Z,3.00
2018-11-27T07:43:10.199Z,3.00
2018-11-27T07:45:39.408Z,3.10
2018-11-27T07:48:09.112Z,3.20
2018-11-27T07:50:37.789Z,3.20
2018-11-27T07:53:07.027Z,3.30
2018-11-27T07:55:35.753Z,3.30
2018-11-27T07:58:05.521Z,3.30
2018-11-27T08:00:40.850Z,3.30
2018-11-27T08:03:09.493Z,3.50
2018-11-27T08:05:41.255Z,3.60
2018-11-27T08:08:11.581Z,3.70
2018-11-27T08:10:40.348Z,3.70
2018-11-27T08:13:09.574Z,3.70
2018-11-27T08:15:38.186Z,3.70
2018-11-27T08:18:06.935Z,3.80
2018-11-27T08:20:35.834Z,3.90
2018-11-27T08:23:04.748Z,3.90
2018-11-27T08:25:33.449Z,4.00
2018-11-27T08:28:02.088Z,4.00
2018-11-27T08:30:30.752Z,4.10
2018-11-27T08:32:59.450Z,4.20
2018-11-27T08:35:29.318Z,4.30
2018-11-27T08:37:58.998Z,4.40
2018-11-27T08:40:29.797Z,4.50
2018-11-27T08:42:58.438Z,4.60
2018-11-27T08:45:27.176Z,4.60
2018-11-27T08:47:56.365Z,4.70
2018-11-27T08:50:26.257Z,4.70
2018-11-27T08:53:00.986Z,4.80
2018-11-27T08:55:33.425Z,4.90
2018-11-27T08:58:02.405Z,5.10
2018-11-27T09:00:31.089Z,5.30
2018-11-27T09:02:59.796Z,5.50
2018-11-27T09:05:28.450Z,5.90
2018-11-27T09:07:57.062Z,7.50
2018-11-27T09:10:26.305Z,9.40
2018-11-27T09:12:54.971Z,10.90
2018-11-27T09:15:24.619Z,12.10
2018-11-27T09:18:03.067Z,12.70
2018-11-27T09:20:31.714Z,12.70
2018-11-27T09:23:00.305Z,11.90
2018-11-27T09:25:29.021Z,11.50
2018-11-27T09:27:57.693Z,11.50
2018-11-27T09:30:26.996Z,11.50
2018-11-27T09:32:56.633Z,11.30
2018-11-27T09:35:25.353Z,11.20
2018-11-27T09:37:54.004Z,10.50
2018-11-27T09:40:22.656Z,9.90
2018-11-27T09:42:51.290Z,9.60
2018-11-27T09:45:22.262Z,9.20
2018-11-27T09:47:52.022Z,8.90
2018-11-27T09:50:20.720Z,8.70
2018-11-27T09:52:49.462Z,8.50
2018-11-27T09:55:20.105Z,8.20
2018-11-27T09:57:48.772Z,7.90
2018-11-27T10:00:22.405Z,7.80
2018-11-27T10:02:51.954Z,7.50
2018-11-27T10:05:20.664Z,7.30
2018-11-27T10:07:49.295Z,7.10
2018-11-27T10:10:19.398Z,7.00
2018-11-27T10:12:48.081Z,7.00
2018-11-27T10:15:24.559Z,7.00
2018-11-27T10:17:54.648Z,6.90
2018-11-27T10:20:24.789Z,7.00
2018-11-27T10:22:53.474Z,6.90
2018-11-27T10:25:22.162Z,6.80
2018-11-27T10:27:50.861Z,6.90
2018-11-27T10:30:23.689Z,7.00
2018-11-27T10:32:56.142Z,7.00
2018-11-27T10:35:28.246Z,7.00
2018-11-27T10:37:56.876Z,7.00
2018-11-27T10:40:25.520Z,7.00
2018-11-27T10:42:54.351Z,6.70
2018-11-27T10:45:23.574Z,6.70
2018-11-27T10:47:55.407Z,6.70
2018-11-27T10:50:24.232Z,6.60
2018-11-27T10:52:54.328Z,6.70
2018-11-27T10:55:24.046Z,6.70
2018-11-27T10:57:52.812Z,6.70
2018-11-27T11:00:27.754Z,6.80
2018-11-27T11:04:04.263Z,6.90
2018-11-27T11:06:33.284Z,6.90
2018-11-27T11:09:02.654Z,6.90
2018-11-27T11:11:31.254Z,6.90
2018-11-27T11:13:59.922Z,7.00
2018-11-27T11:16:28.593Z,7.10
2018-11-27T11:18:57.290Z,7.10
2018-11-27T11:21:25.979Z,7.30
2018-11-27T11:23:54.696Z,7.10
2018-11-27T11:26:23.359Z,7.20
2018-11-27T11:28:52.005Z,7.20
2018-11-27T11:31:20.635Z,7.30
2018-11-27T11:33:49.271Z,7.20
2018-11-27T11:36:17.892Z,7.20
2018-11-27T11:38:46.496Z,7.20
2018-11-27T11:41:15.180Z,7.10
2018-11-27T11:43:43.830Z,7.00
2018-11-27T11:46:12.458Z,7.10
2018-11-27T11:48:41.093Z,7.10
2018-11-27T11:51:09.688Z,7.20
2018-11-27T11:53:38.332Z,7.20
2018-11-27T11:56:08.499Z,7.20
2018-11-27T11:58:37.158Z,7.20
2018-11-27T12:01:06.348Z,7.10
2018-11-27T12:03:34.992Z,7.10
2018-11-27T12:06:03.710Z,7.10
2018-11-27T12:08:32.309Z,7.10
2018-11-27T12:11:00.973Z,7.10
2018-11-27T12:13:29.595Z,7.10
2018-11-27T12:15:58.234Z,7.00
2018-11-27T12:18:26.878Z,7.00
2018-11-27T12:20:55.491Z,7.00
2018-11-27T12:23:24.134Z,6.90
2018-11-27T12:25:52.767Z,6.90
2018-11-27T12:28:21.363Z,7.00
2018-11-27T12:30:50.001Z,7.00
2018-11-27T12:33:18.614Z,7.00
2018-11-27T12:35:47.253Z,7.00
2018-11-27T12:38:15.938Z,6.90
2018-11-27T12:40:44.607Z,7.00
2018-11-27T12:43:13.284Z,6.90
2018-11-27T12:45:41.904Z,7.00
2018-11-27T12:48:10.569Z,7.00
2018-11-27T12:50:43.619Z,7.00
2018-11-27T12:53:17.035Z,7.00
2018-11-27T12:55:46.000Z,7.10
2018-11-27T12:58:14.652Z,7.10
2018-11-27T13:00:43.323Z,7.10
2018-11-27T13:03:11.994Z,7.00
2018-11-27T13:05:42.693Z,7.00
2018-11-27T13:08:21.509Z,7.00
2018-11-27T13:10:50.157Z,7.00
2018-11-27T13:13:18.789Z,7.00
2018-11-27T13:15:47.446Z,6.90
2018-11-27T13:18:16.131Z,6.80
2018-11-27T13:20:44.774Z,6.70
2018-11-27T13:23:13.423Z,6.70
2018-11-27T13:25:42.088Z,6.60
2018-11-27T13:28:12.456Z,6.60
2018-11-27T13:30:48.289Z,6.60
2018-11-27T13:33:23.025Z,6.70
2018-11-27T13:35:51.685Z,6.80
2018-11-27T13:38:20.298Z,6.80
2018-11-27T13:40:48.938Z,6.90
2018-11-27T13:43:24.117Z,6.90
2018-11-27T13:45:52.823Z,6.90
2018-11-27T13:48:21.499Z,6.80
2018-11-27T13:50:50.118Z,6.80
2018-11-27T13:53:18.816Z,6.80
2018-11-27T13:55:47.433Z,6.60
2018-11-27T13:58:16.090Z,6.50
2018-11-27T14:00:44.708Z,6.40
2018-11-27T14:03:13.357Z,6.40
2018-11-27T14:05:41.977Z,6.50
2018-11-27T14:08:11.718Z,6.50
2018-11-27T14:10:40.641Z,6.40
2018-11-27T14:13:09.466Z,6.40
2018-11-27T14:15:38.312Z,6.30
2018-11-27T14:18:07.676Z,6.30
2018-11-27T14:20:36.431Z,6.30
2018-11-27T14:23:05.738Z,6.30
2018-11-27T14:25:34.352Z,6.30
2018-11-27T14:28:02.999Z,6.20
2018-11-27T14:30:31.632Z,6.10
2018-11-27T14:33:00.302Z,6.00
2018-11-27T14:35:28.970Z,5.90
2018-11-27T14:37:57.617Z,5.80
2018-11-27T14:40:28.427Z,5.80
2018-11-27T14:42:57.088Z,5.80
2018-11-27T14:45:26.900Z,5.60
2018-11-27T14:47:56.948Z,5.50
2018-11-27T14:50:25.621Z,5.40
2018-11-27T14:52:54.299Z,5.30
2018-11-27T14:55:24.427Z,5.30
2018-11-27T14:57:53.081Z,5.30
2018-11-27T15:00:22.934Z,5.30
2018-11-27T15:02:51.714Z,5.30
2018-11-27T15:05:25.968Z,5.30
2018-11-27T15:07:54.642Z,5.30
2018-11-27T15:10:23.262Z,5.20
2018-11-27T15:12:51.951Z,5.10
2018-11-27T15:15:20.643Z,5.00
2018-11-27T15:17:49.315Z,4.90
2018-11-27T15:20:19.150Z,4.80
2018-11-27T15:22:47.836Z,4.80
2018-11-27T15:25:16.617Z,4.70
2018-11-27T15:27:45.301Z,4.60
2018-11-27T15:30:20.924Z,4.50
2018-11-27T15:32:50.026Z,4.50
2018-11-27T15:35:18.642Z,4.50
2018-11-27T15:37:47.310Z,4.50
2018-11-27T15:40:19.648Z,4.40
2018-11-27T15:42:48.272Z,4.30
2018-11-27T15:45:19.188Z,4.20
2018-11-27T15:47:48.038Z,4.10
2018-11-27T15:50:16.661Z,4.00
2018-11-27T15:52:45.673Z,4.00
2018-11-27T15:55:19.264Z,4.00
2018-11-27T15:57:49.169Z,3.90
2018-11-27T16:00:18.928Z,3.80
2018-11-27T16:02:47.683Z,3.70
2018-11-27T16:05:16.738Z,3.60
2018-11-27T16:07:45.533Z,3.70
2018-11-27T16:10:15.180Z,3.60
2018-11-27T16:12:43.918Z,3.60
2018-11-27T16:15:16.614Z,3.40
2018-11-27T16:17:45.325Z,3.30
2018-11-27T16:20:16.885Z,3.30
2018-11-27T16:22:48.491Z,3.20
2018-11-27T16:25:18.121Z,3.30
2018-11-27T16:27:46.861Z,3.30
2018-11-27T16:30:18.888Z,3.20
2018-11-27T16:32:47.508Z,3.00
2018-11-27T16:35:16.269Z,2.80
2018-11-27T16:37:46.470Z,2.60
2018-11-27T16:40:20.262Z,2.40
2018-11-27T16:42:48.925Z,2.30
2018-11-27T16:45:19.588Z,2.20
2018-11-27T16:47:48.599Z,2.30
2018-11-27T16:50:17.701Z,2.50
2018-11-27T16:52:46.807Z,2.70
2018-11-27T16:55:17.900Z,3.00
2018-11-27T16:57:46.545Z,3.20
2018-11-27T17:00:31.080Z,3.40
2018-11-27T17:03:00.890Z,3.70
2018-11-27T17:05:32.479Z,3.80
2018-11-27T17:08:01.168Z,3.90
2018-11-27T17:10:30.095Z,4.10
2018-11-27T17:12:59.079Z,4.20
2018-11-27T17:15:28.322Z,4.40
2018-11-27T17:17:57.285Z,4.40
2018-11-27T17:20:27.538Z,4.40
2018-11-27T17:22:57.116Z,4.40
2018-11-27T17:25:25.795Z,4.50
2018-11-27T17:27:55.341Z,4.50
2018-11-27T17:30:34.922Z,4.50
2018-11-27T17:33:04.262Z,4.40
2018-11-27T17:35:32.942Z,4.40
2018-11-27T17:38:01.566Z,4.40
2018-11-27T17:40:30.192Z,4.40
2018-11-27T17:42:58.796Z,4.40
2018-11-27T17:45:27.434Z,4.40
2018-11-27T17:47:56.056Z,4.40
2018-11-27T17:50:24.677Z,4.50
2018-11-27T17:52:53.300Z,4.60
2018-11-27T17:55:21.897Z,4.60
2018-11-27T17:57:50.737Z,4.60
2018-11-27T18:00:23.466Z,4.60
2018-11-27T18:02:53.601Z,4.60
2018-11-27T18:05:22.255Z,4.60
2018-11-27T18:07:50.893Z,4.60
2018-11-27T18:10:19.599Z,4.60
2018-11-27T18:12:48.262Z,4.60
2018-11-27T18:15:18.394Z,4.50
2018-11-27T18:17:47.116Z,4.40
2018-11-27T18:20:15.757Z,4.40
2018-11-27T18:22:44.441Z,4.40
2018-11-27T18:25:14.506Z,4.60
2018-11-27T18:27:44.058Z,4.60
2018-11-27T18:30:19.270Z,4.60
2018-11-27T18:32:47.963Z,4.60
2018-11-27T18:35:21.758Z,4.50
2018-11-27T18:37:50.991Z,4.30
2018-11-27T18:40:19.998Z,4.20
2018-11-27T18:42:48.763Z,4.10
2018-11-27T18:45:20.570Z,4.10
2018-11-27T18:47:49.251Z,4.10
2018-11-27T18:50:17.922Z,4.10
2018-11-27T18:52:46.604Z,3.90
2018-11-27T18:55:15.991Z,3.80
2018-11-27T18:57:45.761Z,3.70
2018-11-27T19:00:19.624Z,3.60
2018-11-27T19:02:48.370Z,3.50
2018-11-27T19:05:17.047Z,3.40
2018-11-27T19:07:45.749Z,3.40
2018-11-27T19:10:17.743Z,3.40
2018-11-27T19:12:47.177Z,3.40
2018-11-27T19:15:36.345Z,3.50
2018-11-27T19:18:12.103Z,3.40
2018-11-27T19:20:40.797Z,3.30
2018-11-27T19:23:09.447Z,3.30
2018-11-27T19:25:38.110Z,3.20
2018-11-27T19:28:07.844Z,3.20
2018-11-27T19:30:36.534Z,3.20
2018-11-27T19:33:05.872Z,3.00
2018-11-27T19:35:34.492Z,2.90
2018-11-27T19:38:03.414Z,2.90
2018-11-27T19:40:32.197Z,2.70
2018-11-27T19:43:00.837Z,2.50
2018-11-27T19:45:29.495Z,2.30
2018-11-27T19:47:58.141Z,2.30
2018-11-27T19:50:26.910Z,2.20
2018-11-27T19:52:57.302Z,2.20
2018-11-27T19:55:27.531Z,2.00
2018-11-27T19:57:56.207Z,1.90
2018-11-27T20:00:26.326Z,2.00
2018-11-27T20:02:57.113Z,2.20
2018-11-27T20:05:30.882Z,2.40
2018-11-27T20:10:43.656Z,2.30
2018-11-27T20:13:12.392Z,2.30
2018-11-27T20:16:03.118Z,2.40
2018-11-27T20:18:31.934Z,2.30
2018-11-27T20:21:00.603Z,2.20
2018-11-27T20:23:29.217Z,2.20
2018-11-27T20:25:57.892Z,2.20
2018-11-27T20:28:34.853Z,2.30
2018-11-27T20:31:03.542Z,2.40
2018-11-27T20:33:32.808Z,2.40
2018-11-27T20:36:01.490Z,2.50
2018-11-27T20:38:30.230Z,2.40
2018-11-27T20:40:58.873Z,2.40
2018-11-27T20:43:27.481Z,2.30
2018-11-27T20:45:56.196Z,2.20
2018-11-27T20:48:24.849Z,2.30
2018-11-27T20:50:53.494Z,2.30
2018-11-27T20:53:22.210Z,2.20
2018-11-27T20:55:51.010Z,2.30
2018-11-27T20:58:19.685Z,2.30
2018-11-27T21:00:49.958Z,2.30
2018-11-27T21:03:18.594Z,2.30
2018-11-27T21:05:47.241Z,2.40
2018-11-27T21:08:15.891Z,2.40
2018-11-27T21:10:44.553Z,2.30
2018-11-27T21:13:13.412Z,2.20
2018-11-27T21:15:43.157Z,2.10
2018-11-27T21:18:12.393Z,1.90
2018-11-27T21:20:42.440Z,1.90
2018-11-27T21:23:11.093Z,1.70
2018-11-27T21:25:39.834Z,1.50
2018-11-27T21:28:12.841Z,1.30
2018-11-27T21:30:41.518Z,1.20
2018-11-27T21:33:10.151Z,1.10
2018-11-27T21:35:38.847Z,1.00
2018-11-27T21:38:07.533Z,0.90
2018-11-27T21:40:36.326Z,0.80
2018-11-27T21:43:05.397Z,0.80
2018-11-27T21:45:34.145Z,0.90
2018-11-27T21:48:02.830Z,0.80
2018-11-27T21:50:36.766Z,1.00
2018-11-27T21:53:05.519Z,1.20
2018-11-27T21:55:35.458Z,1.40
2018-11-27T21:58:02.938Z,1.50
2018-11-27T22:00:31.643Z,1.60
2018-11-27T22:03:00.273Z,1.70
2018-11-27T22:05:28.906Z,1.70
2018-11-27T22:07:57.550Z,1.60
2018-11-27T22:10:26.225Z,1.60
2018-11-27T22:12:57.200Z,1.60
2018-11-27T22:15:34.465Z,1.70
2018-11-27T22:18:03.369Z,1.60
2018-11-27T22:20:32.002Z,1.70
2018-11-27T22:23:00.655Z,1.80
2018-11-27T22:25:29.304Z,1.80
2018-11-27T22:27:57.984Z,1.80
2018-11-27T22:30:26.587Z,1.80
2018-11-27T22:32:56.026Z,1.70
2018-11-27T22:35:24.693Z,1.70
2018-11-27T22:37:53.442Z,1.60
2018-11-27T22:40:23.749Z,1.60
2018-11-27T22:42:53.181Z,1.50
2018-11-27T22:45:37.122Z,1.60
2018-11-27T22:48:06.742Z,1.60
2018-11-27T22:50:35.364Z,1.50
2018-11-27T22:53:04.093Z,1.50
2018-11-27T22:55:32.769Z,1.50
2018-11-27T22:58:01.425Z,1.50
2018-11-27T23:00:35.246Z,1.60
2018-11-27T23:03:03.970Z,1.60
2018-11-27T23:05:32.700Z,1.60
2018-11-27T23:08:01.389Z,1.70
2018-11-27T23:10:31.770Z,1.70
2018-11-27T23:13:00.525Z,1.80
2018-11-27T23:15:29.149Z,1.70
2018-11-27T23:17:57.794Z,1.60
2018-11-27T23:20:26.423Z,1.60
2018-11-27T23:22:55.110Z,1.70
2018-11-27T23:25:23.749Z,1.80
2018-11-27T23:27:52.476Z,1.90
2018-11-27T23:30:23.075Z,1.90
2018-11-27T23:32:51.789Z,2.00
2018-11-27T23:35:20.434Z,2.00
2018-11-27T23:37:49.213Z,2.00
2018-11-27T23:40:18.933Z,2.00
2018-11-27T23:42:47.882Z,2.00
2018-11-27T23:45:17.986Z,1.90
2018-11-27T23:47:46.680Z,1.90
2018-11-27T23:50:22.714Z,1.80
2018-11-27T23:52:51.383Z,1.80
2018-11-27T23:55:20.631Z,1.80
2018-11-27T23:57:49.318Z,1.80
